sensor_id;sensor_type;location;lat;lon;timestamp;P1;durP1;ratioP1;P2;durP2;ratioP2
73585;SDS011;61865;50.232;18.614;2022-09-24T00:01:16;64.50;;;30.75;;
73585;SDS011;61865;50.232;18.614;2022-09-24T00:03:40;61.58;;;28.95;;
73585;SDS011;61865;50.232;18.614;2022-09-24T00:06:04;75.18;;;31.63;;
73585;SDS011;61865;50.232;18.614;2022-09-24T00:08:27;73.38;;;31.42;;
73585;SDS011;61865;50.232;18.614;2022-09-24T00:10:49;75.95;;;31.67;;
73585;SDS011;61865;50.232;18.614;2022-09-24T00:13:12;79.28;;;30.15;;
73585;SDS011;61865;50.232;18.614;2022-09-24T00:15:35;70.78;;;29.15;;
73585;SDS011;61865;50.232;18.614;2022-09-24T00:17:58;63.78;;;29.00;;
73585;SDS011;61865;50.232;18.614;2022-09-24T00:20:21;67.13;;;31.52;;
73585;SDS011;61865;50.232;18.614;2022-09-24T00:22:42;58.97;;;29.08;;
73585;SDS011;61865;50.232;18.614;2022-09-24T00:25:05;58.10;;;30.40;;
73585;SDS011;61865;50.232;18.614;2022-09-24T00:27:45;52.40;;;28.08;;
73585;SDS011;61865;50.232;18.614;2022-09-24T00:30:07;57.80;;;29.20;;
73585;SDS011;61865;50.232;18.614;2022-09-24T00:32:29;55.15;;;29.92;;
73585;SDS011;61865;50.232;18.614;2022-09-24T00:34:52;60.72;;;28.02;;
73585;SDS011;61865;50.232;18.614;2022-09-24T00:37:14;64.93;;;28.17;;
73585;SDS011;61865;50.232;18.614;2022-09-24T00:39:38;60.17;;;26.27;;
73585;SDS011;61865;50.232;18.614;2022-09-24T00:42:00;51.75;;;27.52;;
73585;SDS011;61865;50.232;18.614;2022-09-24T00:47:16;63.83;;;27.00;;
73585;SDS011;61865;50.232;18.614;2022-09-24T00:49:48;59.00;;;24.70;;
73585;SDS011;61865;50.232;18.614;2022-09-24T00:52:12;55.38;;;23.67;;
73585;SDS011;61865;50.232;18.614;2022-09-24T00:54:34;60.65;;;26.83;;
73585;SDS011;61865;50.232;18.614;2022-09-24T00:56:57;63.47;;;30.83;;
73585;SDS011;61865;50.232;18.614;2022-09-24T00:59:21;54.42;;;29.63;;
73585;SDS011;61865;50.232;18.614;2022-09-24T01:01:45;50.75;;;26.92;;
73585;SDS011;61865;50.232;18.614;2022-09-24T01:04:08;56.28;;;26.65;;
73585;SDS011;61865;50.232;18.614;2022-09-24T01:06:31;46.75;;;23.75;;
73585;SDS011;61865;50.232;18.614;2022-09-24T01:08:54;39.90;;;23.48;;
73585;SDS011;61865;50.232;18.614;2022-09-24T01:11:25;40.45;;;22.80;;
73585;SDS011;61865;50.232;18.614;2022-09-24T01:16:38;41.60;;;21.35;;
73585;SDS011;61865;50.232;18.614;2022-09-24T01:19:07;40.50;;;21.88;;
73585;SDS011;61865;50.232;18.614;2022-09-24T01:21:37;46.33;;;24.60;;
73585;SDS011;61865;50.232;18.614;2022-09-24T01:24:13;41.47;;;23.52;;
73585;SDS011;61865;50.232;18.614;2022-09-24T01:26:49;50.35;;;23.85;;
73585;SDS011;61865;50.232;18.614;2022-09-24T01:29:27;41.90;;;22.83;;
73585;SDS011;61865;50.232;18.614;2022-09-24T01:32:01;39.97;;;23.05;;
73585;SDS011;61865;50.232;18.614;2022-09-24T01:34:29;34.30;;;20.27;;
73585;SDS011;61865;50.232;18.614;2022-09-24T01:36:58;42.90;;;23.80;;
73585;SDS011;61865;50.232;18.614;2022-09-24T01:39:22;43.72;;;26.40;;
73585;SDS011;61865;50.232;18.614;2022-09-24T01:41:46;49.67;;;25.17;;
73585;SDS011;61865;50.232;18.614;2022-09-24T01:44:09;42.10;;;26.65;;
73585;SDS011;61865;50.232;18.614;2022-09-24T01:46:33;52.30;;;29.02;;
73585;SDS011;61865;50.232;18.614;2022-09-24T01:48:58;57.20;;;34.83;;
73585;SDS011;61865;50.232;18.614;2022-09-24T01:51:21;48.17;;;27.80;;
73585;SDS011;61865;50.232;18.614;2022-09-24T01:53:47;46.17;;;23.75;;
73585;SDS011;61865;50.232;18.614;2022-09-24T01:56:12;51.92;;;27.10;;
73585;SDS011;61865;50.232;18.614;2022-09-24T01:58:39;61.97;;;31.95;;
73585;SDS011;61865;50.232;18.614;2022-09-24T02:01:06;55.80;;;35.08;;
73585;SDS011;61865;50.232;18.614;2022-09-24T02:03:34;52.88;;;31.77;;
73585;SDS011;61865;50.232;18.614;2022-09-24T02:06:03;51.95;;;30.00;;
73585;SDS011;61865;50.232;18.614;2022-09-24T02:08:29;59.45;;;30.45;;
73585;SDS011;61865;50.232;18.614;2022-09-24T02:10:56;49.67;;;27.35;;
73585;SDS011;61865;50.232;18.614;2022-09-24T02:13:23;50.10;;;26.30;;
73585;SDS011;61865;50.232;18.614;2022-09-24T02:15:49;49.92;;;28.92;;
73585;SDS011;61865;50.232;18.614;2022-09-24T02:18:15;69.07;;;41.83;;
73585;SDS011;61865;50.232;18.614;2022-09-24T02:20:41;50.50;;;29.02;;
73585;SDS011;61865;50.232;18.614;2022-09-24T02:23:04;42.33;;;25.23;;
73585;SDS011;61865;50.232;18.614;2022-09-24T02:25:29;45.25;;;26.77;;
73585;SDS011;61865;50.232;18.614;2022-09-24T02:27:55;46.92;;;25.13;;
73585;SDS011;61865;50.232;18.614;2022-09-24T02:30:17;47.40;;;27.85;;
73585;SDS011;61865;50.232;18.614;2022-09-24T02:32:39;61.25;;;32.97;;
73585;SDS011;61865;50.232;18.614;2022-09-24T02:35:04;45.47;;;25.70;;
73585;SDS011;61865;50.232;18.614;2022-09-24T02:37:32;48.88;;;26.65;;
73585;SDS011;61865;50.232;18.614;2022-09-24T02:39:55;59.80;;;26.90;;
73585;SDS011;61865;50.232;18.614;2022-09-24T02:42:17;52.75;;;26.58;;
73585;SDS011;61865;50.232;18.614;2022-09-24T02:44:40;51.80;;;25.77;;
73585;SDS011;61865;50.232;18.614;2022-09-24T02:47:02;40.20;;;24.85;;
73585;SDS011;61865;50.232;18.614;2022-09-24T02:49:25;44.85;;;24.85;;
73585;SDS011;61865;50.232;18.614;2022-09-24T02:51:47;43.03;;;25.10;;
73585;SDS011;61865;50.232;18.614;2022-09-24T02:54:10;49.45;;;25.17;;
73585;SDS011;61865;50.232;18.614;2022-09-24T02:56:33;42.85;;;24.38;;
73585;SDS011;61865;50.232;18.614;2022-09-24T02:58:55;40.53;;;25.55;;
73585;SDS011;61865;50.232;18.614;2022-09-24T03:01:16;45.60;;;26.00;;
73585;SDS011;61865;50.232;18.614;2022-09-24T03:03:38;41.67;;;26.10;;
73585;SDS011;61865;50.232;18.614;2022-09-24T03:06:00;43.50;;;25.55;;
73585;SDS011;61865;50.232;18.614;2022-09-24T03:08:22;49.70;;;25.48;;
73585;SDS011;61865;50.232;18.614;2022-09-24T03:10:47;45.08;;;26.08;;
73585;SDS011;61865;50.232;18.614;2022-09-24T03:13:10;37.67;;;25.05;;
73585;SDS011;61865;50.232;18.614;2022-09-24T03:15:31;44.53;;;26.27;;
73585;SDS011;61865;50.232;18.614;2022-09-24T03:17:53;43.75;;;25.02;;
73585;SDS011;61865;50.232;18.614;2022-09-24T03:20:15;44.60;;;25.20;;
73585;SDS011;61865;50.232;18.614;2022-09-24T03:22:37;50.10;;;28.67;;
73585;SDS011;61865;50.232;18.614;2022-09-24T03:24:59;41.15;;;26.70;;
73585;SDS011;61865;50.232;18.614;2022-09-24T03:27:23;46.40;;;28.65;;
73585;SDS011;61865;50.232;18.614;2022-09-24T03:29:45;47.42;;;26.85;;
73585;SDS011;61865;50.232;18.614;2022-09-24T03:32:24;46.78;;;28.15;;
73585;SDS011;61865;50.232;18.614;2022-09-24T03:34:46;47.40;;;29.95;;
73585;SDS011;61865;50.232;18.614;2022-09-24T03:37:08;52.83;;;27.92;;
73585;SDS011;61865;50.232;18.614;2022-09-24T03:39:30;42.33;;;27.15;;
73585;SDS011;61865;50.232;18.614;2022-09-24T03:41:52;43.60;;;26.27;;
73585;SDS011;61865;50.232;18.614;2022-09-24T03:44:15;43.55;;;28.52;;
73585;SDS011;61865;50.232;18.614;2022-09-24T03:46:37;43.20;;;26.98;;
73585;SDS011;61865;50.232;18.614;2022-09-24T03:48:58;43.72;;;26.80;;
73585;SDS011;61865;50.232;18.614;2022-09-24T03:51:20;41.70;;;26.00;;
73585;SDS011;61865;50.232;18.614;2022-09-24T03:53:42;43.50;;;27.20;;
73585;SDS011;61865;50.232;18.614;2022-09-24T03:56:04;45.00;;;27.75;;
73585;SDS011;61865;50.232;18.614;2022-09-24T03:58:28;43.25;;;27.05;;
73585;SDS011;61865;50.232;18.614;2022-09-24T04:00:52;46.25;;;27.92;;
73585;SDS011;61865;50.232;18.614;2022-09-24T04:03:14;48.08;;;30.88;;
73585;SDS011;61865;50.232;18.614;2022-09-24T04:05:36;49.22;;;29.67;;
73585;SDS011;61865;50.232;18.614;2022-09-24T04:07:59;52.92;;;30.50;;
73585;SDS011;61865;50.232;18.614;2022-09-24T04:10:21;47.97;;;27.05;;
73585;SDS011;61865;50.232;18.614;2022-09-24T04:12:44;43.20;;;24.48;;
73585;SDS011;61865;50.232;18.614;2022-09-24T04:15:06;38.75;;;24.50;;
73585;SDS011;61865;50.232;18.614;2022-09-24T04:17:30;50.63;;;23.65;;
73585;SDS011;61865;50.232;18.614;2022-09-24T04:19:52;43.58;;;23.17;;
73585;SDS011;61865;50.232;18.614;2022-09-24T04:22:14;34.88;;;21.02;;
73585;SDS011;61865;50.232;18.614;2022-09-24T04:24:36;38.75;;;21.20;;
73585;SDS011;61865;50.232;18.614;2022-09-24T04:26:58;35.28;;;21.90;;
73585;SDS011;61865;50.232;18.614;2022-09-24T04:29:20;42.03;;;21.73;;
73585;SDS011;61865;50.232;18.614;2022-09-24T04:31:42;35.20;;;21.25;;
73585;SDS011;61865;50.232;18.614;2022-09-24T04:34:07;35.00;;;20.75;;
73585;SDS011;61865;50.232;18.614;2022-09-24T04:36:29;35.13;;;20.45;;
73585;SDS011;61865;50.232;18.614;2022-09-24T04:38:51;33.83;;;21.63;;
73585;SDS011;61865;50.232;18.614;2022-09-24T04:41:13;32.70;;;20.42;;
73585;SDS011;61865;50.232;18.614;2022-09-24T04:43:35;36.03;;;20.55;;
73585;SDS011;61865;50.232;18.614;2022-09-24T04:45:57;36.80;;;21.83;;
73585;SDS011;61865;50.232;18.614;2022-09-24T04:48:20;35.50;;;19.77;;
73585;SDS011;61865;50.232;18.614;2022-09-24T04:50:44;39.95;;;20.67;;
73585;SDS011;61865;50.232;18.614;2022-09-24T04:53:06;34.50;;;20.67;;
73585;SDS011;61865;50.232;18.614;2022-09-24T04:55:28;33.15;;;20.10;;
73585;SDS011;61865;50.232;18.614;2022-09-24T04:57:51;27.77;;;18.35;;
73585;SDS011;61865;50.232;18.614;2022-09-24T05:00:16;29.73;;;18.23;;
73585;SDS011;61865;50.232;18.614;2022-09-24T05:02:40;26.85;;;18.25;;
73585;SDS011;61865;50.232;18.614;2022-09-24T05:05:02;23.63;;;16.75;;
73585;SDS011;61865;50.232;18.614;2022-09-24T05:07:26;35.72;;;19.08;;
73585;SDS011;61865;50.232;18.614;2022-09-24T05:09:47;29.33;;;19.00;;
73585;SDS011;61865;50.232;18.614;2022-09-24T05:12:09;29.88;;;19.27;;
73585;SDS011;61865;50.232;18.614;2022-09-24T05:14:32;27.58;;;17.67;;
73585;SDS011;61865;50.232;18.614;2022-09-24T05:16:54;35.67;;;19.00;;
73585;SDS011;61865;50.232;18.614;2022-09-24T05:19:16;45.10;;;22.77;;
73585;SDS011;61865;50.232;18.614;2022-09-24T05:21:37;38.03;;;20.98;;
73585;SDS011;61865;50.232;18.614;2022-09-24T05:24:01;48.72;;;21.40;;
73585;SDS011;61865;50.232;18.614;2022-09-24T05:26:23;34.22;;;19.85;;
73585;SDS011;61865;50.232;18.614;2022-09-24T05:29:02;37.17;;;19.70;;
73585;SDS011;61865;50.232;18.614;2022-09-24T05:31:24;33.65;;;18.60;;
73585;SDS011;61865;50.232;18.614;2022-09-24T05:33:46;30.48;;;17.50;;
73585;SDS011;61865;50.232;18.614;2022-09-24T05:36:08;27.75;;;16.83;;
73585;SDS011;61865;50.232;18.614;2022-09-24T05:38:30;25.75;;;15.90;;
73585;SDS011;61865;50.232;18.614;2022-09-24T05:40:54;26.48;;;14.57;;
73585;SDS011;61865;50.232;18.614;2022-09-24T05:43:16;28.55;;;16.73;;
73585;SDS011;61865;50.232;18.614;2022-09-24T05:45:39;24.20;;;15.82;;
73585;SDS011;61865;50.232;18.614;2022-09-24T05:48:01;26.83;;;17.02;;
73585;SDS011;61865;50.232;18.614;2022-09-24T05:50:23;24.10;;;15.80;;
73585;SDS011;61865;50.232;18.614;2022-09-24T05:52:45;24.88;;;16.65;;
73585;SDS011;61865;50.232;18.614;2022-09-24T05:55:07;26.85;;;17.27;;
73585;SDS011;61865;50.232;18.614;2022-09-24T05:57:33;28.27;;;16.38;;
73585;SDS011;61865;50.232;18.614;2022-09-24T05:59:55;22.98;;;16.20;;
73585;SDS011;61865;50.232;18.614;2022-09-24T06:02:16;27.08;;;17.70;;
73585;SDS011;61865;50.232;18.614;2022-09-24T06:04:38;29.50;;;18.70;;
73585;SDS011;61865;50.232;18.614;2022-09-24T06:07:00;28.33;;;19.70;;
73585;SDS011;61865;50.232;18.614;2022-09-24T06:09:23;29.25;;;18.38;;
73585;SDS011;61865;50.232;18.614;2022-09-24T06:11:44;28.42;;;18.48;;
73585;SDS011;61865;50.232;18.614;2022-09-24T06:14:10;29.35;;;18.55;;
73585;SDS011;61865;50.232;18.614;2022-09-24T06:16:33;28.77;;;19.00;;
73585;SDS011;61865;50.232;18.614;2022-09-24T06:18:55;28.48;;;18.98;;
73585;SDS011;61865;50.232;18.614;2022-09-24T06:21:17;31.90;;;19.20;;
73585;SDS011;61865;50.232;18.614;2022-09-24T06:23:38;29.30;;;19.05;;
73585;SDS011;61865;50.232;18.614;2022-09-24T06:26:01;30.65;;;19.85;;
73585;SDS011;61865;50.232;18.614;2022-09-24T06:28:23;31.38;;;19.38;;
73585;SDS011;61865;50.232;18.614;2022-09-24T06:30:46;28.95;;;19.02;;
73585;SDS011;61865;50.232;18.614;2022-09-24T06:33:09;32.72;;;19.00;;
73585;SDS011;61865;50.232;18.614;2022-09-24T06:35:33;30.77;;;18.73;;
73585;SDS011;61865;50.232;18.614;2022-09-24T06:37:55;29.45;;;18.33;;
73585;SDS011;61865;50.232;18.614;2022-09-24T06:40:17;29.85;;;18.30;;
73585;SDS011;61865;50.232;18.614;2022-09-24T06:42:39;32.40;;;19.23;;
73585;SDS011;61865;50.232;18.614;2022-09-24T06:45:01;29.27;;;18.58;;
73585;SDS011;61865;50.232;18.614;2022-09-24T06:47:25;31.60;;;18.75;;
73585;SDS011;61865;50.232;18.614;2022-09-24T06:49:49;26.10;;;17.65;;
73585;SDS011;61865;50.232;18.614;2022-09-24T06:52:11;30.25;;;18.55;;
73585;SDS011;61865;50.232;18.614;2022-09-24T06:54:32;26.45;;;17.35;;
73585;SDS011;61865;50.232;18.614;2022-09-24T06:56:54;24.73;;;16.75;;
73585;SDS011;61865;50.232;18.614;2022-09-24T06:59:16;26.35;;;16.52;;
73585;SDS011;61865;50.232;18.614;2022-09-24T07:01:38;26.58;;;17.17;;
73585;SDS011;61865;50.232;18.614;2022-09-24T07:04:01;27.45;;;17.35;;
73585;SDS011;61865;50.232;18.614;2022-09-24T07:06:23;30.95;;;17.80;;
73585;SDS011;61865;50.232;18.614;2022-09-24T07:08:48;39.95;;;22.63;;
73585;SDS011;61865;50.232;18.614;2022-09-24T07:11:11;38.88;;;21.63;;
73585;SDS011;61865;50.232;18.614;2022-09-24T07:13:34;28.10;;;17.95;;
73585;SDS011;61865;50.232;18.614;2022-09-24T07:15:56;26.20;;;16.90;;
73585;SDS011;61865;50.232;18.614;2022-09-24T07:18:20;23.92;;;16.00;;
73585;SDS011;61865;50.232;18.614;2022-09-24T07:20:43;25.00;;;15.95;;
73585;SDS011;61865;50.232;18.614;2022-09-24T07:23:11;28.67;;;17.52;;
73585;SDS011;61865;50.232;18.614;2022-09-24T07:25:33;26.63;;;16.35;;
73585;SDS011;61865;50.232;18.614;2022-09-24T07:27:59;24.80;;;15.68;;
73585;SDS011;61865;50.232;18.614;2022-09-24T07:30:22;29.48;;;16.75;;
73585;SDS011;61865;50.232;18.614;2022-09-24T07:32:43;23.38;;;17.10;;
73585;SDS011;61865;50.232;18.614;2022-09-24T07:35:05;25.80;;;17.40;;
73585;SDS011;61865;50.232;18.614;2022-09-24T07:37:29;26.77;;;18.15;;
73585;SDS011;61865;50.232;18.614;2022-09-24T07:39:52;31.58;;;17.20;;
73585;SDS011;61865;50.232;18.614;2022-09-24T07:42:14;30.80;;;17.50;;
73585;SDS011;61865;50.232;18.614;2022-09-24T07:44:35;24.83;;;17.83;;
73585;SDS011;61865;50.232;18.614;2022-09-24T07:46:57;25.50;;;16.83;;
73585;SDS011;61865;50.232;18.614;2022-09-24T07:49:19;26.85;;;17.13;;
73585;SDS011;61865;50.232;18.614;2022-09-24T07:51:42;27.70;;;17.02;;
73585;SDS011;61865;50.232;18.614;2022-09-24T07:54:05;28.98;;;17.85;;
73585;SDS011;61865;50.232;18.614;2022-09-24T07:56:29;26.73;;;16.58;;
73585;SDS011;61865;50.232;18.614;2022-09-24T07:58:51;27.73;;;15.85;;
73585;SDS011;61865;50.232;18.614;2022-09-24T08:01:13;21.98;;;15.23;;
73585;SDS011;61865;50.232;18.614;2022-09-24T08:03:36;23.33;;;15.85;;
73585;SDS011;61865;50.232;18.614;2022-09-24T08:05:59;22.63;;;14.77;;
73585;SDS011;61865;50.232;18.614;2022-09-24T08:08:21;21.85;;;14.35;;
73585;SDS011;61865;50.232;18.614;2022-09-24T08:10:44;20.45;;;12.68;;
73585;SDS011;61865;50.232;18.614;2022-09-24T08:13:06;19.20;;;11.00;;
73585;SDS011;61865;50.232;18.614;2022-09-24T08:15:28;17.63;;;11.23;;
73585;SDS011;61865;50.232;18.614;2022-09-24T08:17:50;17.77;;;11.07;;
73585;SDS011;61865;50.232;18.614;2022-09-24T08:20:12;20.92;;;11.65;;
73585;SDS011;61865;50.232;18.614;2022-09-24T08:22:33;20.83;;;11.85;;
73585;SDS011;61865;50.232;18.614;2022-09-24T08:24:55;17.85;;;12.00;;
73585;SDS011;61865;50.232;18.614;2022-09-24T08:27:18;19.50;;;11.55;;
73585;SDS011;61865;50.232;18.614;2022-09-24T08:29:40;21.52;;;11.82;;
73585;SDS011;61865;50.232;18.614;2022-09-24T08:32:02;18.27;;;10.85;;
73585;SDS011;61865;50.232;18.614;2022-09-24T08:34:24;19.15;;;10.90;;
73585;SDS011;61865;50.232;18.614;2022-09-24T08:36:46;19.42;;;10.45;;
73585;SDS011;61865;50.232;18.614;2022-09-24T08:39:09;26.27;;;11.65;;
73585;SDS011;61865;50.232;18.614;2022-09-24T08:41:37;19.83;;;10.98;;
73585;SDS011;61865;50.232;18.614;2022-09-24T08:44:17;16.88;;;11.32;;
73585;SDS011;61865;50.232;18.614;2022-09-24T08:46:56;15.82;;;10.25;;
73585;SDS011;61865;50.232;18.614;2022-09-24T08:49:47;19.02;;;10.60;;
73585;SDS011;61865;50.232;18.614;2022-09-24T08:52:16;19.13;;;11.38;;
73585;SDS011;61865;50.232;18.614;2022-09-24T08:54:49;18.90;;;10.88;;
73585;SDS011;61865;50.232;18.614;2022-09-24T08:57:13;21.77;;;10.93;;
73585;SDS011;61865;50.232;18.614;2022-09-24T08:59:39;16.98;;;10.48;;
73585;SDS011;61865;50.232;18.614;2022-09-24T09:02:10;17.05;;;10.82;;
73585;SDS011;61865;50.232;18.614;2022-09-24T09:04:44;19.48;;;11.00;;
73585;SDS011;61865;50.232;18.614;2022-09-24T09:07:17;18.65;;;9.85;;
73585;SDS011;61865;50.232;18.614;2022-09-24T09:09:44;15.05;;;9.70;;
73585;SDS011;61865;50.232;18.614;2022-09-24T09:12:14;19.23;;;10.10;;
73585;SDS011;61865;50.232;18.614;2022-09-24T09:14:40;15.10;;;9.50;;
73585;SDS011;61865;50.232;18.614;2022-09-24T09:17:08;15.43;;;9.35;;
73585;SDS011;61865;50.232;18.614;2022-09-24T09:19:40;18.40;;;9.63;;
73585;SDS011;61865;50.232;18.614;2022-09-24T09:22:08;15.52;;;9.52;;
73585;SDS011;61865;50.232;18.614;2022-09-24T09:24:34;18.42;;;8.77;;
73585;SDS011;61865;50.232;18.614;2022-09-24T09:27:04;13.95;;;8.30;;
73585;SDS011;61865;50.232;18.614;2022-09-24T09:29:33;15.07;;;8.75;;
73585;SDS011;61865;50.232;18.614;2022-09-24T09:32:01;15.70;;;8.75;;
73585;SDS011;61865;50.232;18.614;2022-09-24T09:34:33;15.40;;;8.48;;
73585;SDS011;61865;50.232;18.614;2022-09-24T09:37:10;12.35;;;7.97;;
73585;SDS011;61865;50.232;18.614;2022-09-24T09:39:43;12.38;;;7.53;;
73585;SDS011;61865;50.232;18.614;2022-09-24T09:42:22;11.65;;;7.72;;
73585;SDS011;61865;50.232;18.614;2022-09-24T09:44:48;14.88;;;6.97;;
73585;SDS011;61865;50.232;18.614;2022-09-24T09:47:14;14.15;;;7.50;;
73585;SDS011;61865;50.232;18.614;2022-09-24T09:49:42;12.80;;;6.73;;
73585;SDS011;61865;50.232;18.614;2022-09-24T09:52:09;12.48;;;6.57;;
73585;SDS011;61865;50.232;18.614;2022-09-24T09:54:34;9.80;;;6.07;;
73585;SDS011;61865;50.232;18.614;2022-09-24T09:56:57;11.02;;;6.75;;
73585;SDS011;61865;50.232;18.614;2022-09-24T09:59:22;12.90;;;6.07;;
73585;SDS011;61865;50.232;18.614;2022-09-24T10:01:48;9.90;;;6.10;;
73585;SDS011;61865;50.232;18.614;2022-09-24T10:04:29;11.75;;;5.65;;
73585;SDS011;61865;50.232;18.614;2022-09-24T10:07:03;8.98;;;5.80;;
73585;SDS011;61865;50.232;18.614;2022-09-24T10:09:26;10.00;;;6.22;;
73585;SDS011;61865;50.232;18.614;2022-09-24T10:11:47;10.20;;;5.38;;
73585;SDS011;61865;50.232;18.614;2022-09-24T10:14:10;11.27;;;5.68;;
73585;SDS011;61865;50.232;18.614;2022-09-24T10:16:37;12.27;;;5.60;;
73585;SDS011;61865;50.232;18.614;2022-09-24T10:19:00;8.95;;;5.35;;
73585;SDS011;61865;50.232;18.614;2022-09-24T10:21:25;10.20;;;4.82;;
73585;SDS011;61865;50.232;18.614;2022-09-24T10:23:56;10.77;;;4.60;;
73585;SDS011;61865;50.232;18.614;2022-09-24T10:26:20;8.85;;;4.38;;
73585;SDS011;61865;50.232;18.614;2022-09-24T10:28:53;8.57;;;4.15;;
73585;SDS011;61865;50.232;18.614;2022-09-24T10:31:33;11.25;;;4.13;;
73585;SDS011;61865;50.232;18.614;2022-09-24T10:33:58;6.72;;;3.95;;
73585;SDS011;61865;50.232;18.614;2022-09-24T10:36:21;7.40;;;4.63;;
73585;SDS011;61865;50.232;18.614;2022-09-24T10:38:46;7.40;;;4.25;;
73585;SDS011;61865;50.232;18.614;2022-09-24T10:41:14;7.32;;;4.00;;
73585;SDS011;61865;50.232;18.614;2022-09-24T10:43:49;7.38;;;4.28;;
73585;SDS011;61865;50.232;18.614;2022-09-24T10:46:16;6.28;;;3.83;;
73585;SDS011;61865;50.232;18.614;2022-09-24T10:48:53;12.13;;;4.03;;
73585;SDS011;61865;50.232;18.614;2022-09-24T10:51:25;7.68;;;4.40;;
73585;SDS011;61865;50.232;18.614;2022-09-24T10:53:56;6.55;;;3.80;;
73585;SDS011;61865;50.232;18.614;2022-09-24T10:56:30;10.75;;;4.53;;
73585;SDS011;61865;50.232;18.614;2022-09-24T10:59:04;7.30;;;4.18;;
73585;SDS011;61865;50.232;18.614;2022-09-24T11:01:50;9.00;;;4.00;;
73585;SDS011;61865;50.232;18.614;2022-09-24T11:04:31;7.00;;;3.70;;
73585;SDS011;61865;50.232;18.614;2022-09-24T11:07:11;9.95;;;4.00;;
73585;SDS011;61865;50.232;18.614;2022-09-24T11:12:15;6.78;;;3.30;;
73585;SDS011;61865;50.232;18.614;2022-09-24T11:14:50;7.90;;;3.45;;
73585;SDS011;61865;50.232;18.614;2022-09-24T11:17:31;6.75;;;3.22;;
73585;SDS011;61865;50.232;18.614;2022-09-24T11:20:00;7.35;;;3.78;;
73585;SDS011;61865;50.232;18.614;2022-09-24T11:22:40;9.65;;;3.78;;
73585;SDS011;61865;50.232;18.614;2022-09-24T11:25:19;6.90;;;3.33;;
73585;SDS011;61865;50.232;18.614;2022-09-24T11:27:50;8.68;;;3.65;;
73585;SDS011;61865;50.232;18.614;2022-09-24T11:30:20;4.63;;;3.00;;
73585;SDS011;61865;50.232;18.614;2022-09-24T11:32:49;8.10;;;2.80;;
73585;SDS011;61865;50.232;18.614;2022-09-24T11:35:41;4.13;;;2.63;;
73585;SDS011;61865;50.232;18.614;2022-09-24T11:38:14;6.60;;;2.70;;
73585;SDS011;61865;50.232;18.614;2022-09-24T11:40:57;6.43;;;2.60;;
73585;SDS011;61865;50.232;18.614;2022-09-24T11:43:48;5.68;;;2.80;;
73585;SDS011;61865;50.232;18.614;2022-09-24T11:46:38;7.25;;;3.28;;
73585;SDS011;61865;50.232;18.614;2022-09-24T11:49:14;6.47;;;3.20;;
73585;SDS011;61865;50.232;18.614;2022-09-24T11:51:51;8.32;;;3.30;;
73585;SDS011;61865;50.232;18.614;2022-09-24T11:54:18;8.50;;;2.92;;
73585;SDS011;61865;50.232;18.614;2022-09-24T11:56:47;5.35;;;3.20;;
73585;SDS011;61865;50.232;18.614;2022-09-24T11:59:13;5.25;;;3.22;;
73585;SDS011;61865;50.232;18.614;2022-09-24T12:01:43;6.97;;;4.17;;
73585;SDS011;61865;50.232;18.614;2022-09-24T12:04:09;6.53;;;3.20;;
73585;SDS011;61865;50.232;18.614;2022-09-24T12:06:37;6.03;;;3.20;;
73585;SDS011;61865;50.232;18.614;2022-09-24T12:09:06;5.57;;;2.97;;
73585;SDS011;61865;50.232;18.614;2022-09-24T12:11:35;7.90;;;3.25;;
73585;SDS011;61865;50.232;18.614;2022-09-24T12:14:08;6.30;;;3.42;;
73585;SDS011;61865;50.232;18.614;2022-09-24T12:16:35;6.70;;;3.55;;
73585;SDS011;61865;50.232;18.614;2022-09-24T12:19:00;8.20;;;3.95;;
73585;SDS011;61865;50.232;18.614;2022-09-24T12:21:28;6.22;;;3.20;;
73585;SDS011;61865;50.232;18.614;2022-09-24T12:23:53;6.60;;;3.90;;
73585;SDS011;61865;50.232;18.614;2022-09-24T12:26:19;7.65;;;3.60;;
73585;SDS011;61865;50.232;18.614;2022-09-24T12:28:46;6.28;;;3.17;;
73585;SDS011;61865;50.232;18.614;2022-09-24T12:31:37;6.38;;;3.70;;
73585;SDS011;61865;50.232;18.614;2022-09-24T12:34:24;7.80;;;3.88;;
73585;SDS011;61865;50.232;18.614;2022-09-24T12:36:54;9.85;;;3.60;;
73585;SDS011;61865;50.232;18.614;2022-09-24T12:39:21;9.43;;;4.32;;
73585;SDS011;61865;50.232;18.614;2022-09-24T12:41:48;6.75;;;3.65;;
73585;SDS011;61865;50.232;18.614;2022-09-24T12:44:18;6.18;;;4.00;;
73585;SDS011;61865;50.232;18.614;2022-09-24T12:46:50;6.18;;;3.40;;
73585;SDS011;61865;50.232;18.614;2022-09-24T12:49:16;5.63;;;3.60;;
73585;SDS011;61865;50.232;18.614;2022-09-24T12:51:44;6.50;;;3.20;;
73585;SDS011;61865;50.232;18.614;2022-09-24T12:54:07;7.68;;;3.95;;
73585;SDS011;61865;50.232;18.614;2022-09-24T12:56:49;5.68;;;3.22;;
73585;SDS011;61865;50.232;18.614;2022-09-24T12:59:22;6.70;;;3.72;;
73585;SDS011;61865;50.232;18.614;2022-09-24T13:01:45;5.80;;;3.28;;
73585;SDS011;61865;50.232;18.614;2022-09-24T13:04:25;6.65;;;3.90;;
73585;SDS011;61865;50.232;18.614;2022-09-24T13:09:22;7.75;;;4.07;;
73585;SDS011;61865;50.232;18.614;2022-09-24T13:11:52;7.18;;;3.78;;
73585;SDS011;61865;50.232;18.614;2022-09-24T13:14:25;6.90;;;3.33;;
73585;SDS011;61865;50.232;18.614;2022-09-24T13:16:50;5.85;;;3.40;;
73585;SDS011;61865;50.232;18.614;2022-09-24T13:19:25;5.75;;;3.40;;
73585;SDS011;61865;50.232;18.614;2022-09-24T13:21:54;7.50;;;4.43;;
73585;SDS011;61865;50.232;18.614;2022-09-24T13:24:22;6.72;;;3.67;;
73585;SDS011;61865;50.232;18.614;2022-09-24T13:26:47;6.18;;;3.35;;
73585;SDS011;61865;50.232;18.614;2022-09-24T13:29:20;7.15;;;3.47;;
73585;SDS011;61865;50.232;18.614;2022-09-24T13:31:44;7.40;;;3.92;;
73585;SDS011;61865;50.232;18.614;2022-09-24T13:34:15;7.38;;;3.65;;
73585;SDS011;61865;50.232;18.614;2022-09-24T13:36:43;8.05;;;4.07;;
73585;SDS011;61865;50.232;18.614;2022-09-24T13:39:10;6.93;;;3.75;;
73585;SDS011;61865;50.232;18.614;2022-09-24T13:41:39;6.60;;;3.58;;
73585;SDS011;61865;50.232;18.614;2022-09-24T13:44:10;8.02;;;3.90;;
73585;SDS011;61865;50.232;18.614;2022-09-24T13:46:38;7.07;;;3.80;;
73585;SDS011;61865;50.232;18.614;2022-09-24T13:49:07;6.00;;;3.63;;
73585;SDS011;61865;50.232;18.614;2022-09-24T13:51:35;7.07;;;4.17;;
73585;SDS011;61865;50.232;18.614;2022-09-24T13:54:04;7.78;;;4.25;;
73585;SDS011;61865;50.232;18.614;2022-09-24T13:56:32;8.63;;;4.28;;
73585;SDS011;61865;50.232;18.614;2022-09-24T13:59:01;6.10;;;4.10;;
73585;SDS011;61865;50.232;18.614;2022-09-24T14:01:26;9.63;;;4.32;;
73585;SDS011;61865;50.232;18.614;2022-09-24T14:03:52;9.30;;;5.30;;
73585;SDS011;61865;50.232;18.614;2022-09-24T14:06:16;8.10;;;4.38;;
73585;SDS011;61865;50.232;18.614;2022-09-24T14:08:41;15.15;;;7.72;;
73585;SDS011;61865;50.232;18.614;2022-09-24T14:11:12;8.48;;;5.20;;
73585;SDS011;61865;50.232;18.614;2022-09-24T14:13:35;7.72;;;3.72;;
73585;SDS011;61865;50.232;18.614;2022-09-24T14:16:06;9.30;;;3.72;;
73585;SDS011;61865;50.232;18.614;2022-09-24T14:18:30;6.53;;;3.72;;
73585;SDS011;61865;50.232;18.614;2022-09-24T14:20:54;6.85;;;4.00;;